sensor_id;sensor_type;location;lat;lon;timestamp;temperature;humidity
52187;DHT22;38161;53.020;6.598;2023-09-08T00:01:55;17.70;99.90
52187;DHT22;38161;53.020;6.598;2023-09-08T00:04:21;17.70;99.90
52187;DHT22;38161;53.020;6.598;2023-09-08T00:06:47;17.70;99.90
52187;DHT22;38161;53.020;6.598;2023-09-08T00:09:13;17.70;99.90
52187;DHT22;38161;53.020;6.598;2023-09-08T00:11:39;17.70;99.90
52187;DHT22;38161;53.020;6.598;2023-09-08T00:14:05;17.60;99.90
52187;DHT22;38161;53.020;6.598;2023-09-08T00:16:31;17.60;99.90
52187;DHT22;38161;53.020;6.598;2023-09-08T00:18:57;17.60;99.90
52187;DHT22;38161;53.020;6.598;2023-09-08T00:21:26;17.60;99.90
52187;DHT22;38161;53.020;6.598;2023-09-08T00:23:52;17.50;99.90
52187;DHT22;38161;53.020;6.598;2023-09-08T00:26:19;17.50;99.90
52187;DHT22;38161;53.020;6.598;2023-09-08T00:28:44;17.50;99.90
52187;DHT22;38161;53.020;6.598;2023-09-08T00:31:10;17.40;99.90
52187;DHT22;38161;53.020;6.598;2023-09-08T00:33:36;18.40;99.90
52187;DHT22;38161;53.020;6.598;2023-09-08T00:36:03;17.40;99.90
52187;DHT22;38161;53.020;6.598;2023-09-08T00:38:28;17.30;99.90
52187;DHT22;38161;53.020;6.598;2023-09-08T00:40:54;17.30;99.90
52187;DHT22;38161;53.020;6.598;2023-09-08T00:43:20;17.30;99.90
52187;DHT22;38161;53.020;6.598;2023-09-08T00:45:46;17.20;99.90
52187;DHT22;38161;53.020;6.598;2023-09-08T00:48:13;17.20;99.90
52187;DHT22;38161;53.020;6.598;2023-09-08T00:50:39;17.10;99.90
52187;DHT22;38161;53.020;6.598;2023-09-08T00:53:06;17.10;99.90
52187;DHT22;38161;53.020;6.598;2023-09-08T00:55:32;17.10;99.90
52187;DHT22;38161;53.020;6.598;2023-09-08T00:57:59;17.00;99.90
52187;DHT22;38161;53.020;6.598;2023-09-08T01:00:28;17.00;99.90
52187;DHT22;38161;53.020;6.598;2023-09-08T01:02:53;17.00;99.90
52187;DHT22;38161;53.020;6.598;2023-09-08T01:05:20;16.90;99.90
52187;DHT22;38161;53.020;6.598;2023-09-08T01:26:17;16.80;99.90
52187;DHT22;38161;53.020;6.598;2023-09-08T01:28:45;16.80;99.90
52187;DHT22;38161;53.020;6.598;2023-09-08T01:31:16;16.80;99.90
52187;DHT22;38161;53.020;6.598;2023-09-08T01:33:43;16.80;99.90
52187;DHT22;38161;53.020;6.598;2023-09-08T01:36:10;16.80;99.90
52187;DHT22;38161;53.020;6.598;2023-09-08T01:38:36;16.80;99.90
52187;DHT22;38161;53.020;6.598;2023-09-08T01:41:01;16.80;99.90
52187;DHT22;38161;53.020;6.598;2023-09-08T01:43:27;16.80;99.90
52187;DHT22;38161;53.020;6.598;2023-09-08T01:45:53;16.80;99.90
52187;DHT22;38161;53.020;6.598;2023-09-08T01:48:19;16.80;99.90
52187;DHT22;38161;53.020;6.598;2023-09-08T01:50:45;16.80;99.90
52187;DHT22;38161;53.020;6.598;2023-09-08T01:53:12;16.70;99.90
52187;DHT22;38161;53.020;6.598;2023-09-08T01:55:37;16.70;99.90
52187;DHT22;38161;53.020;6.598;2023-09-08T01:58:03;16.60;99.90
52187;DHT22;38161;53.020;6.598;2023-09-08T02:00:29;16.60;99.90
52187;DHT22;38161;53.020;6.598;2023-09-08T02:02:55;16.60;99.90
52187;DHT22;38161;53.020;6.598;2023-09-08T02:05:21;15.70;99.90
52187;DHT22;38161;53.020;6.598;2023-09-08T02:07:46;16.50;99.90
52187;DHT22;38161;53.020;6.598;2023-09-08T02:10:12;16.40;99.90
52187;DHT22;38161;53.020;6.598;2023-09-08T02:12:38;16.40;99.90
52187;DHT22;38161;53.020;6.598;2023-09-08T02:15:04;16.40;99.90
52187;DHT22;38161;53.020;6.598;2023-09-08T02:17:30;16.40;99.90
52187;DHT22;38161;53.020;6.598;2023-09-08T02:19:56;16.30;99.90
52187;DHT22;38161;53.020;6.598;2023-09-08T02:22:22;16.30;99.90
52187;DHT22;38161;53.020;6.598;2023-09-08T02:24:47;16.20;99.90
52187;DHT22;38161;53.020;6.598;2023-09-08T02:27:13;16.30;99.90
52187;DHT22;38161;53.020;6.598;2023-09-08T02:29:39;16.20;99.90
52187;DHT22;38161;53.020;6.598;2023-09-08T02:32:05;16.20;99.90
52187;DHT22;38161;53.020;6.598;2023-09-08T02:34:34;16.20;99.90
52187;DHT22;38161;53.020;6.598;2023-09-08T02:37:02;16.10;99.90
52187;DHT22;38161;53.020;6.598;2023-09-08T02:39:28;16.10;99.90
52187;DHT22;38161;53.020;6.598;2023-09-08T02:41:54;16.10;99.90
52187;DHT22;38161;53.020;6.598;2023-09-08T02:44:20;16.00;99.90
52187;DHT22;38161;53.020;6.598;2023-09-08T02:46:47;16.00;99.90
52187;DHT22;38161;53.020;6.598;2023-09-08T02:49:13;16.00;99.90
52187;DHT22;38161;53.020;6.598;2023-09-08T02:51:39;15.90;99.90
52187;DHT22;38161;53.020;6.598;2023-09-08T02:54:05;15.90;99.90
52187;DHT22;38161;53.020;6.598;2023-09-08T02:56:31;15.90;99.90
52187;DHT22;38161;53.020;6.598;2023-09-08T02:58:57;15.90;99.90
52187;DHT22;38161;53.020;6.598;2023-09-08T03:01:22;15.80;99.90
52187;DHT22;38161;53.020;6.598;2023-09-08T03:03:48;15.80;99.90
52187;DHT22;38161;53.020;6.598;2023-09-08T03:06:18;15.80;99.90
52187;DHT22;38161;53.020;6.598;2023-09-08T03:08:45;15.80;99.90
52187;DHT22;38161;53.020;6.598;2023-09-08T03:11:12;15.80;99.90
52187;DHT22;38161;53.020;6.598;2023-09-08T03:13:39;15.80;99.90
52187;DHT22;38161;53.020;6.598;2023-09-08T03:16:06;15.80;99.90
52187;DHT22;38161;53.020;6.598;2023-09-08T03:18:33;15.80;99.90
52187;DHT22;38161;53.020;6.598;2023-09-08T03:20:59;15.80;99.90
52187;DHT22;38161;53.020;6.598;2023-09-08T03:23:38;15.80;99.90
52187;DHT22;38161;53.020;6.598;2023-09-08T03:26:05;15.70;99.90
52187;DHT22;38161;53.020;6.598;2023-09-08T03:28:34;15.70;99.90
52187;DHT22;38161;53.020;6.598;2023-09-08T03:31:04;15.70;99.90
52187;DHT22;38161;53.020;6.598;2023-09-08T03:33:30;15.60;99.90
52187;DHT22;38161;53.020;6.598;2023-09-08T03:35:55;15.60;99.90
52187;DHT22;38161;53.020;6.598;2023-09-08T03:38:22;15.60;99.90
52187;DHT22;38161;53.020;6.598;2023-09-08T03:40:47;15.60;99.90
52187;DHT22;38161;53.020;6.598;2023-09-08T03:43:13;15.60;99.90
52187;DHT22;38161;53.020;6.598;2023-09-08T03:45:39;15.60;99.90
52187;DHT22;38161;53.020;6.598;2023-09-08T03:48:06;15.60;99.90
52187;DHT22;38161;53.020;6.598;2023-09-08T03:50:32;15.50;99.90
52187;DHT22;38161;53.020;6.598;2023-09-08T03:52:58;15.50;99.90
52187;DHT22;38161;53.020;6.598;2023-09-08T03:55:24;15.50;99.90
52187;DHT22;38161;53.020;6.598;2023-09-08T03:57:49;15.50;99.90
52187;DHT22;38161;53.020;6.598;2023-09-08T04:00:15;15.50;99.90
52187;DHT22;38161;53.020;6.598;2023-09-08T04:02:50;15.50;99.90
52187;DHT22;38161;53.020;6.598;2023-09-08T04:05:18;15.50;99.90
52187;DHT22;38161;53.020;6.598;2023-09-08T04:07:47;15.40;99.90
52187;DHT22;38161;53.020;6.598;2023-09-08T04:10:14;15.40;99.90
52187;DHT22;38161;53.020;6.598;2023-09-08T04:12:40;15.40;99.90
52187;DHT22;38161;53.020;6.598;2023-09-08T04:15:07;15.40;99.90
52187;DHT22;38161;53.020;6.598;2023-09-08T04:17:32;15.40;99.90
52187;DHT22;38161;53.020;6.598;2023-09-08T04:19:59;15.30;99.90
52187;DHT22;38161;53.020;6.598;2023-09-08T04:22:24;15.30;99.90
52187;DHT22;38161;53.020;6.598;2023-09-08T04:24:50;15.30;99.90
52187;DHT22;38161;53.020;6.598;2023-09-08T04:27:16;15.30;99.90
52187;DHT22;38161;53.020;6.598;2023-09-08T04:29:42;15.20;99.90
52187;DHT22;38161;53.020;6.598;2023-09-08T04:32:07;15.20;99.90
52187;DHT22;38161;53.020;6.598;2023-09-08T04:34:38;15.20;99.90
52187;DHT22;38161;53.020;6.598;2023-09-08T04:37:04;15.20;99.90
52187;DHT22;38161;53.020;6.598;2023-09-08T04:39:30;15.20;99.90
52187;DHT22;38161;53.020;6.598;2023-09-08T04:41:56;15.20;99.90
52187;DHT22;38161;53.020;6.598;2023-09-08T04:44:22;15.20;99.90
52187;DHT22;38161;53.020;6.598;2023-09-08T04:46:48;15.20;99.90
52187;DHT22;38161;53.020;6.598;2023-09-08T04:49:14;15.20;99.90
52187;DHT22;38161;53.020;6.598;2023-09-08T04:51:39;15.20;99.90
52187;DHT22;38161;53.020;6.598;2023-09-08T04:54:05;15.20;99.90
52187;DHT22;38161;53.020;6.598;2023-09-08T04:56:31;15.10;99.90
52187;DHT22;38161;53.020;6.598;2023-09-08T04:58:57;15.10;99.90
52187;DHT22;38161;53.020;6.598;2023-09-08T05:01:24;15.10;99.90
52187;DHT22;38161;53.020;6.598;2023-09-08T05:03:49;15.20;99.90
52187;DHT22;38161;53.020;6.598;2023-09-08T05:06:15;15.20;99.90
52187;DHT22;38161;53.020;6.598;2023-09-08T05:08:41;15.10;99.90
52187;DHT22;38161;53.020;6.598;2023-09-08T05:11:06;15.10;99.90
52187;DHT22;38161;53.020;6.598;2023-09-08T05:13:32;15.10;99.90
52187;DHT22;38161;53.020;6.598;2023-09-08T05:15:58;15.10;99.90
52187;DHT22;38161;53.020;6.598;2023-09-08T05:18:37;15.10;99.90
52187;DHT22;38161;53.020;6.598;2023-09-08T05:21:03;15.10;99.90
52187;DHT22;38161;53.020;6.598;2023-09-08T05:23:30;15.10;99.90
52187;DHT22;38161;53.020;6.598;2023-09-08T05:25:56;15.10;99.90
52187;DHT22;38161;53.020;6.598;2023-09-08T05:28:21;15.10;99.90
52187;DHT22;38161;53.020;6.598;2023-09-08T05:30:47;15.10;99.90
52187;DHT22;38161;53.020;6.598;2023-09-08T05:33:13;15.20;99.90
52187;DHT22;38161;53.020;6.598;2023-09-08T05:35:39;15.10;99.90
52187;DHT22;38161;53.020;6.598;2023-09-08T05:38:05;15.10;99.90
52187;DHT22;38161;53.020;6.598;2023-09-08T05:40:31;15.20;99.90
52187;DHT22;38161;53.020;6.598;2023-09-08T05:42:57;15.20;99.90
52187;DHT22;38161;53.020;6.598;2023-09-08T05:45:22;15.20;99.90
52187;DHT22;38161;53.020;6.598;2023-09-08T05:47:48;15.20;99.90
52187;DHT22;38161;53.020;6.598;2023-09-08T05:50:16;15.30;99.90
52187;DHT22;38161;53.020;6.598;2023-09-08T05:52:42;15.30;99.90
52187;DHT22;38161;53.020;6.598;2023-09-08T05:55:07;15.30;99.90
52187;DHT22;38161;53.020;6.598;2023-09-08T05:57:33;15.40;99.90
52187;DHT22;38161;53.020;6.598;2023-09-08T06:00:02;15.40;99.90
52187;DHT22;38161;53.020;6.598;2023-09-08T06:02:27;15.50;99.90
52187;DHT22;38161;53.020;6.598;2023-09-08T06:04:53;15.50;99.90
52187;DHT22;38161;53.020;6.598;2023-09-08T06:07:19;15.60;99.90
52187;DHT22;38161;53.020;6.598;2023-09-08T06:09:45;15.70;99.90
52187;DHT22;38161;53.020;6.598;2023-09-08T06:12:10;15.70;99.90
52187;DHT22;38161;53.020;6.598;2023-09-08T06:14:36;15.80;99.90
52187;DHT22;38161;53.020;6.598;2023-09-08T06:17:02;15.80;99.90
52187;DHT22;38161;53.020;6.598;2023-09-08T06:19:28;15.90;99.90
52187;DHT22;38161;53.020;6.598;2023-09-08T06:21:54;16.00;99.90
52187;DHT22;38161;53.020;6.598;2023-09-08T06:24:20;16.10;99.90
52187;DHT22;38161;53.020;6.598;2023-09-08T06:26:46;16.20;99.90
52187;DHT22;38161;53.020;6.598;2023-09-08T06:29:12;16.20;99.90
52187;DHT22;38161;53.020;6.598;2023-09-08T06:31:37;16.30;99.90
52187;DHT22;38161;53.020;6.598;2023-09-08T06:34:03;16.40;99.90
52187;DHT22;38161;53.020;6.598;2023-09-08T06:36:29;16.50;99.90
52187;DHT22;38161;53.020;6.598;2023-09-08T06:38:55;16.60;99.90
52187;DHT22;38161;53.020;6.598;2023-09-08T06:41:21;16.70;99.90
52187;DHT22;38161;53.020;6.598;2023-09-08T06:43:48;16.80;99.90
52187;DHT22;38161;53.020;6.598;2023-09-08T06:46:14;16.90;99.90
52187;DHT22;38161;53.020;6.598;2023-09-08T06:48:40;17.00;99.90
52187;DHT22;38161;53.020;6.598;2023-09-08T06:51:05;17.00;99.90
52187;DHT22;38161;53.020;6.598;2023-09-08T06:53:31;17.10;99.90
52187;DHT22;38161;53.020;6.598;2023-09-08T06:55:57;17.10;99.90
52187;DHT22;38161;53.020;6.598;2023-09-08T06:58:23;17.20;99.90
52187;DHT22;38161;53.020;6.598;2023-09-08T07:00:50;17.20;99.90
52187;DHT22;38161;53.020;6.598;2023-09-08T07:03:18;17.30;99.90
52187;DHT22;38161;53.020;6.598;2023-09-08T07:05:45;17.40;99.90
52187;DHT22;38161;53.020;6.598;2023-09-08T07:08:11;17.40;99.90
52187;DHT22;38161;53.020;6.598;2023-09-08T07:10:36;17.50;99.90
52187;DHT22;38161;53.020;6.598;2023-09-08T07:13:02;17.60;99.90
52187;DHT22;38161;53.020;6.598;2023-09-08T07:15:28;17.60;99.90
52187;DHT22;38161;53.020;6.598;2023-09-08T07:17:54;17.80;99.90
52187;DHT22;38161;53.020;6.598;2023-09-08T07:20:20;17.80;99.90
52187;DHT22;38161;53.020;6.598;2023-09-08T07:22:46;17.90;99.90
52187;DHT22;38161;53.020;6.598;2023-09-08T07:25:12;18.00;99.90
52187;DHT22;38161;53.020;6.598;2023-09-08T07:27:38;18.10;99.90
52187;DHT22;38161;53.020;6.598;2023-09-08T07:30:05;18.20;99.90
52187;DHT22;38161;53.020;6.598;2023-09-08T07:32:31;18.20;99.90
52187;DHT22;38161;53.020;6.598;2023-09-08T07:34:57;18.30;99.90
52187;DHT22;38161;53.020;6.598;2023-09-08T07:37:23;18.40;99.90
52187;DHT22;38161;53.020;6.598;2023-09-08T07:39:50;18.50;99.90
52187;DHT22;38161;53.020;6.598;2023-09-08T07:42:16;18.60;99.90
52187;DHT22;38161;53.020;6.598;2023-09-08T07:44:42;18.70;99.90
52187;DHT22;38161;53.020;6.598;2023-09-08T07:47:08;18.80;99.90
52187;DHT22;38161;53.020;6.598;2023-09-08T07:49:34;19.00;99.90
52187;DHT22;38161;53.020;6.598;2023-09-08T07:52:00;19.10;99.90
52187;DHT22;38161;53.020;6.598;2023-09-08T07:54:26;19.30;99.90
52187;DHT22;38161;53.020;6.598;2023-09-08T07:56:52;19.50;99.90
52187;DHT22;38161;53.020;6.598;2023-09-08T07:59:18;19.60;99.90
52187;DHT22;38161;53.020;6.598;2023-09-08T08:01:44;19.80;99.90
52187;DHT22;38161;53.020;6.598;2023-09-08T08:04:09;19.90;99.90
52187;DHT22;38161;53.020;6.598;2023-09-08T08:06:37;20.00;99.90
52187;DHT22;38161;53.020;6.598;2023-09-08T08:09:03;20.20;99.90
52187;DHT22;38161;53.020;6.598;2023-09-08T08:11:29;20.40;99.90
52187;DHT22;38161;53.020;6.598;2023-09-08T08:13:55;20.50;99.90
52187;DHT22;38161;53.020;6.598;2023-09-08T08:16:22;20.60;99.90
52187;DHT22;38161;53.020;6.598;2023-09-08T08:18:49;20.70;99.90
52187;DHT22;38161;53.020;6.598;2023-09-08T08:21:15;20.90;99.90
52187;DHT22;38161;53.020;6.598;2023-09-08T08:23:41;21.00;99.90
52187;DHT22;38161;53.020;6.598;2023-09-08T08:26:08;21.10;99.90
52187;DHT22;38161;53.020;6.598;2023-09-08T08:28:34;21.20;99.90
52187;DHT22;38161;53.020;6.598;2023-09-08T08:31:00;21.40;99.90
52187;DHT22;38161;53.020;6.598;2023-09-08T08:33:26;21.60;99.90
52187;DHT22;38161;53.020;6.598;2023-09-08T08:35:53;21.70;99.90
52187;DHT22;38161;53.020;6.598;2023-09-08T08:38:19;21.90;99.90
52187;DHT22;38161;53.020;6.598;2023-09-08T08:40:45;22.00;99.90
52187;DHT22;38161;53.020;6.598;2023-09-08T08:43:14;22.20;99.90
52187;DHT22;38161;53.020;6.598;2023-09-08T08:45:42;22.30;99.90
52187;DHT22;38161;53.020;6.598;2023-09-08T08:48:09;22.40;99.90
52187;DHT22;38161;53.020;6.598;2023-09-08T08:50:36;22.50;99.90
52187;DHT22;38161;53.020;6.598;2023-09-08T08:53:03;22.70;99.90
52187;DHT22;38161;53.020;6.598;2023-09-08T08:55:29;22.90;99.90
52187;DHT22;38161;53.020;6.598;2023-09-08T08:58:03;23.00;99.90
52187;DHT22;38161;53.020;6.598;2023-09-08T09:00:30;23.10;99.90
52187;DHT22;38161;53.020;6.598;2023-09-08T09:02:57;23.20;99.90
52187;DHT22;38161;53.020;6.598;2023-09-08T09:05:24;23.20;99.90
52187;DHT22;38161;53.020;6.598;2023-09-08T09:07:50;23.40;99.90
52187;DHT22;38161;53.020;6.598;2023-09-08T09:10:17;23.50;99.90
52187;DHT22;38161;53.020;6.598;2023-09-08T09:12:44;23.60;99.90
52187;DHT22;38161;53.020;6.598;2023-09-08T09:15:10;23.70;99.90
52187;DHT22;38161;53.020;6.598;2023-09-08T09:17:37;23.90;99.90
52187;DHT22;38161;53.020;6.598;2023-09-08T09:20:17;24.00;99.90
52187;DHT22;38161;53.020;6.598;2023-09-08T09:22:48;24.20;99.90
52187;DHT22;38161;53.020;6.598;2023-09-08T09:25:24;24.30;99.90
52187;DHT22;38161;53.020;6.598;2023-09-08T09:27:52;24.40;99.90
52187;DHT22;38161;53.020;6.598;2023-09-08T09:30:18;24.50;99.90
52187;DHT22;38161;53.020;6.598;2023-09-08T09:32:44;24.60;99.90
52187;DHT22;38161;53.020;6.598;2023-09-08T09:35:10;24.70;99.90
52187;DHT22;38161;53.020;6.598;2023-09-08T09:37:35;24.70;99.90
52187;DHT22;38161;53.020;6.598;2023-09-08T09:40:02;24.80;99.90
52187;DHT22;38161;53.020;6.598;2023-09-08T09:42:33;24.90;99.90
52187;DHT22;38161;53.020;6.598;2023-09-08T09:45:01;25.00;99.90
52187;DHT22;38161;53.020;6.598;2023-09-08T09:47:27;25.10;99.90
52187;DHT22;38161;53.020;6.598;2023-09-08T09:49:53;25.20;99.90
52187;DHT22;38161;53.020;6.598;2023-09-08T09:52:23;25.20;99.90
52187;DHT22;38161;53.020;6.598;2023-09-08T09:54:53;25.30;99.90
52187;DHT22;38161;53.020;6.598;2023-09-08T09:57:21;25.40;99.90
52187;DHT22;38161;53.020;6.598;2023-09-08T09:59:48;25.50;99.90
52187;DHT22;38161;53.020;6.598;2023-09-08T10:02:18;25.50;99.90
52187;DHT22;38161;53.020;6.598;2023-09-08T10:04:48;25.60;99.90
52187;DHT22;38161;53.020;6.598;2023-09-08T10:07:15;25.70;99.90
52187;DHT22;38161;53.020;6.598;2023-09-08T10:09:41;25.80;99.90
52187;DHT22;38161;53.020;6.598;2023-09-08T10:12:09;26.00;99.90
52187;DHT22;38161;53.020;6.598;2023-09-08T10:14:41;26.10;99.90
52187;DHT22;38161;53.020;6.598;2023-09-08T10:17:12;26.20;99.90
52187;DHT22;38161;53.020;6.598;2023-09-08T10:19:40;26.20;99.90
52187;DHT22;38161;53.020;6.598;2023-09-08T10:22:11;26.40;99.90
52187;DHT22;38161;53.020;6.598;2023-09-08T10:24:39;26.40;99.90
52187;DHT22;38161;53.020;6.598;2023-09-08T10:27:10;26.50;99.90
52187;DHT22;38161;53.020;6.598;2023-09-08T10:29:37;26.50;99.90
52187;DHT22;38161;53.020;6.598;2023-09-08T10:32:04;26.60;99.90
52187;DHT22;38161;53.020;6.598;2023-09-08T10:34:32;26.70;99.90
52187;DHT22;38161;53.020;6.598;2023-09-08T10:36:59;26.70;99.90
52187;DHT22;38161;53.020;6.598;2023-09-08T10:39:34;26.80;99.90
52187;DHT22;38161;53.020;6.598;2023-09-08T10:47:14;27.10;99.90
52187;DHT22;38161;53.020;6.598;2023-09-08T10:49:40;27.10;99.90
52187;DHT22;38161;53.020;6.598;2023-09-08T10:52:11;27.20;99.90
52187;DHT22;38161;53.020;6.598;2023-09-08T10:54:44;27.30;99.90
52187;DHT22;38161;53.020;6.598;2023-09-08T10:57:15;27.30;99.90
52187;DHT22;38161;53.020;6.598;2023-09-08T10:59:56;27.40;99.90
52187;DHT22;38161;53.020;6.598;2023-09-08T11:02:41;27.50;99.90
52187;DHT22;38161;53.020;6.598;2023-09-08T11:05:11;27.50;99.90
52187;DHT22;38161;53.020;6.598;2023-09-08T11:07:39;27.60;99.90
52187;DHT22;38161;53.020;6.598;2023-09-08T11:10:06;27.60;99.90
52187;DHT22;38161;53.020;6.598;2023-09-08T11:12:33;27.70;99.90
52187;DHT22;38161;53.020;6.598;2023-09-08T11:15:01;27.70;99.90
52187;DHT22;38161;53.020;6.598;2023-09-08T11:17:27;27.80;99.90
52187;DHT22;38161;53.020;6.598;2023-09-08T11:19:56;27.80;99.90
52187;DHT22;38161;53.020;6.598;2023-09-08T11:22:24;27.80;99.90
52187;DHT22;38161;53.020;6.598;2023-09-08T11:24:51;27.80;99.90
52187;DHT22;38161;53.020;6.598;2023-09-08T11:27:17;27.90;99.90
52187;DHT22;38161;53.020;6.598;2023-09-08T11:29:44;27.90;99.90
52187;DHT22;38161;53.020;6.598;2023-09-08T11:32:11;28.00;99.90
52187;DHT22;38161;53.020;6.598;2023-09-08T11:34:37;28.00;99.90
52187;DHT22;38161;53.020;6.598;2023-09-08T11:37:14;28.00;99.90
52187;DHT22;38161;53.020;6.598;2023-09-08T11:39:42;28.10;99.90
52187;DHT22;38161;53.020;6.598;2023-09-08T11:42:15;28.10;99.90
52187;DHT22;38161;53.020;6.598;2023-09-08T11:44:42;28.20;99.90
52187;DHT22;38161;53.020;6.598;2023-09-08T11:47:09;28.20;99.90
52187;DHT22;38161;53.020;6.598;2023-09-08T11:49:37;28.30;99.90
52187;DHT22;38161;53.020;6.598;2023-09-08T11:52:03;28.40;99.90
52187;DHT22;38161;53.020;6.598;2023-09-08T11:54:34;28.50;99.90
52187;DHT22;38161;53.020;6.598;2023-09-08T11:57:02;28.50;99.90
52187;DHT22;38161;53.020;6.598;2023-09-08T11:59:31;28.50;99.90
52187;DHT22;38161;53.020;6.598;2023-09-08T12:01:58;28.50;99.90
52187;DHT22;38161;53.020;6.598;2023-09-08T12:04:24;28.50;99.90
52187;DHT22;38161;53.020;6.598;2023-09-08T12:06:52;28.50;99.90
52187;DHT22;38161;53.020;6.598;2023-09-08T12:09:20;28.50;99.90
52187;DHT22;38161;53.020;6.598;2023-09-08T12:11:46;28.50;99.90
52187;DHT22;38161;53.020;6.598;2023-09-08T12:14:13;28.60;99.90
52187;DHT22;38161;53.020;6.598;2023-09-08T12:16:40;28.60;99.90
52187;DHT22;38161;53.020;6.598;2023-09-08T12:19:07;28.50;99.90
52187;DHT22;38161;53.020;6.598;2023-09-08T12:21:39;28.50;99.90
52187;DHT22;38161;53.020;6.598;2023-09-08T12:24:18;28.50;99.90
52187;DHT22;38161;53.020;6.598;2023-09-08T12:26:44;28.50;99.90
52187;DHT22;38161;53.020;6.598;2023-09-08T12:29:13;28.60;99.90
52187;DHT22;38161;53.020;6.598;2023-09-08T12:31:39;28.60;99.90
52187;DHT22;38161;53.020;6.598;2023-09-08T12:34:05;28.60;99.90
52187;DHT22;38161;53.020;6.598;2023-09-08T12:36:31;28.60;99.90
52187;DHT22;38161;53.020;6.598;2023-09-08T12:38:56;28.50;99.90
52187;DHT22;38161;53.020;6.598;2023-09-08T12:41:22;28.50;99.90
52187;DHT22;38161;53.020;6.598;2023-09-08T12:43:48;28.50;99.90
52187;DHT22;38161;53.020;6.598;2023-09-08T12:46:17;28.60;99.90
52187;DHT22;38161;53.020;6.598;2023-09-08T12:48:43;28.60;99.90
52187;DHT22;38161;53.020;6.598;2023-09-08T12:51:09;28.60;99.90
52187;DHT22;38161;53.020;6.598;2023-09-08T12:53:35;28.60;99.90
52187;DHT22;38161;53.020;6.598;2023-09-08T12:56:01;28.60;99.90
52187;DHT22;38161;53.020;6.598;2023-09-08T12:58:27;28.60;99.90
52187;DHT22;38161;53.020;6.598;2023-09-08T13:00:55;28.60;99.90
52187;DHT22;38161;53.020;6.598;2023-09-08T13:03:22;28.60;99.90
52187;DHT22;38161;53.020;6.598;2023-09-08T13:05:48;28.60;99.90
52187;DHT22;38161;53.020;6.598;2023-09-08T13:08:13;28.60;99.90
52187;DHT22;38161;53.020;6.598;2023-09-08T13:10:41;28.60;99.90
52187;DHT22;38161;53.020;6.598;2023-09-08T13:13:07;28.60;99.90
52187;DHT22;38161;53.020;6.598;2023-09-08T13:15:33;28.60;99.90
52187;DHT22;38161;53.020;6.598;2023-09-08T13:17:59;28.60;99.90
52187;DHT22;38161;53.020;6.598;2023-09-08T13:20:24;28.60;99.90
52187;DHT22;38161;53.020;6.598;2023-09-08T13:22:50;28.60;99.90
52187;DHT22;38161;53.020;6.598;2023-09-08T13:25:16;28.60;99.90
52187;DHT22;38161;53.020;6.598;2023-09-08T13:27:42;28.50;99.90
52187;DHT22;38161;53.020;6.598;2023-09-08T13:30:12;28.50;99.90
52187;DHT22;38161;53.020;6.598;2023-09-08T13:32:39;28.50;99.90
52187;DHT22;38161;53.020;6.598;2023-09-08T13:35:05;28.50;99.90
52187;DHT22;38161;53.020;6.598;2023-09-08T13:37:32;28.50;99.90
52187;DHT22;38161;53.020;6.598;2023-09-08T13:40:03;28.50;99.90
52187;DHT22;38161;53.020;6.598;2023-09-08T13:42:31;28.50;99.90
52187;DHT22;38161;53.020;6.598;2023-09-08T13:44:57;28.50;99.90
52187;DHT22;38161;53.020;6.598;2023-09-08T13:47:23;28.50;99.90
52187;DHT22;38161;53.020;6.598;2023-09-08T13:49:48;28.40;99.90
52187;DHT22;38161;53.020;6.598;2023-09-08T13:52:14;28.40;99.90
52187;DHT22;38161;53.020;6.598;2023-09-08T13:54:40;28.40;99.90
52187;DHT22;38161;53.020;6.598;2023-09-08T13:57:06;28.40;99.90
52187;DHT22;38161;53.020;6.598;2023-09-08T13:59:32;28.40;99.90
52187;DHT22;38161;53.020;6.598;2023-09-08T14:01:58;28.40;99.90
52187;DHT22;38161;53.020;6.598;2023-09-08T14:04:25;28.30;99.90
52187;DHT22;38161;53.020;6.598;2023-09-08T14:06:51;28.30;99.90
52187;DHT22;38161;53.020;6.598;2023-09-08T14:09:17;28.30;99.90
52187;DHT22;38161;53.020;6.598;2023-09-08T14:11:42;28.30;99.90
52187;DHT22;38161;53.020;6.598;2023-09-08T14:14:08;28.30;99.90
52187;DHT22;38161;53.020;6.598;2023-09-08T14:16:34;28.30;99.90
52187;DHT22;38161;53.020;6.598;2023-09-08T14:19:00;28.20;99.90
52187;DHT22;38161;53.020;6.598;2023-09-08T14:21:26;28.20;99.90
52187;DHT22;38161;53.020;6.598;2023-09-08T14:23:52;28.20;99.90
52187;DHT22;38161;53.020;6.598;2023-09-08T14:26:18;28.20;99.90
52187;DHT22;38161;53.020;6.598;2023-09-08T14:28:45;28.20;99.90
52187;DHT22;38161;53.020;6.598;2023-09-08T14:31:11;28.20;99.90
52187;DHT22;38161;53.020;6.598;2023-09-08T14:33:37;28.10;99.90
52187;DHT22;38161;53.020;6.598;2023-09-08T14:36:03;28.10;99.90
52187;DHT22;38161;53.020;6.598;2023-09-08T14:38:29;28.10;99.90
52187;DHT22;38161;53.020;6.598;2023-09-08T14:41:00;28.10;99.90
52187;DHT22;38161;53.020;6.598;2023-09-08T14:43:29;28.00;99.90
52187;DHT22;38161;53.020;6.598;2023-09-08T14:45:55;28.00;99.90
52187;DHT22;38161;53.020;6.598;2023-09-08T14:48:23;27.90;99.90
52187;DHT22;38161;53.020;6.598;2023-09-08T14:50:50;28.00;99.90
52187;DHT22;38161;53.020;6.598;2023-09-08T14:53:15;27.90;99.90
52187;DHT22;38161;53.020;6.598;2023-09-08T14:55:41;27.90;99.90
52187;DHT22;38161;53.020;6.598;2023-09-08T14:58:10;27.90;99.90
52187;DHT22;38161;53.020;6.598;2023-09-08T15:00:38;27.80;99.90
52187;DHT22;38161;53.020;6.598;2023-09-08T15:03:04;27.80;99.90
52187;DHT22;38161;53.020;6.598;2023-09-08T15:05:31;27.80;99.90
52187;DHT22;38161;53.020;6.598;2023-09-08T15:07:58;27.80;99.90
52187;DHT22;38161;53.020;6.598;2023-09-08T15:10:24;27.80;99.90
52187;DHT22;38161;53.020;6.598;2023-09-08T15:12:50;27.80;99.90
52187;DHT22;38161;53.020;6.598;2023-09-08T15:15:16;27.70;99.90
52187;DHT22;38161;53.020;6.598;2023-09-08T15:17:44;27.70;99.90
52187;DHT22;38161;53.020;6.598;2023-09-08T15:20:10;27.70;99.90
52187;DHT22;38161;53.020;6.598;2023-09-08T15:22:36;27.60;99.90
52187;DHT22;38161;53.020;6.598;2023-09-08T15:25:02;27.60;99.90
52187;DHT22;38161;53.020;6.598;2023-09-08T15:27:28;27.50;99.90
52187;DHT22;38161;53.020;6.598;2023-09-08T15:29:53;27.50;99.90
52187;DHT22;38161;53.020;6.598;2023-09-08T15:32:19;27.50;99.90
52187;DHT22;38161;53.020;6.598;2023-09-08T15:34:45;27.40;99.90
52187;DHT22;38161;53.020;6.598;2023-09-08T15:37:15;27.40;99.90
52187;DHT22;38161;53.020;6.598;2023-09-08T15:39:41;27.40;99.90
52187;DHT22;38161;53.020;6.598;2023-09-08T15:42:07;27.40;99.90
52187;DHT22;38161;53.020;6.598;2023-09-08T15:44:32;27.30;99.90
52187;DHT22;38161;53.020;6.598;2023-09-08T15:46:58;27.30;99.90
52187;DHT22;38161;53.020;6.598;2023-09-08T15:49:25;27.30;99.90
52187;DHT22;38161;53.020;6.598;2023-09-08T15:51:51;27.20;99.90